Time;durP1;ratioP1;P1;durP2;ratioP2;P2;SDS_P1;SDS_P2;PMS_P1;PMS_P2;Temp;Humidity;BMP_temperature;BMP_pressure;BME280_temperature;BME280_humidity;BME280_pressure;Samples;Min_cycle;Max_cycle;Signal;HPM_P1;HPM_P2
2024/02/15 00:02:12;;;;;;;4.50;4.10;;;;;;;;;;5072752;28;20953;-72
2024/02/15 00:04:39;;;;;;;5.27;4.87;;;;;;;;;;5072910;28;20542;-71
2024/02/15 00:07:06;;;;;;;4.70;4.40;;;;;;;;;;5072856;28;20439;-71
2024/02/15 00:09:34;;;;;;;4.77;4.30;;;;;;;;;;5072867;28;20497;-72
2024/02/15 00:12:02;;;;;;;5.20;4.80;;;;;;;;;;5072722;28;20478;-71
2024/02/15 00:14:29;;;;;;;4.77;4.30;;;;;;;;;;5072619;28;20788;-72
2024/02/15 00:16:56;;;;;;;5.27;4.87;;;;;;;;;;5072745;28;20490;-71
2024/02/15 00:19:23;;;;;;;8.83;5.00;;;;;;;;;;5072774;28;20486;-72
2024/02/15 00:21:50;;;;;;;4.67;4.30;;;;;;;;;;5072705;28;20447;-72
2024/02/15 00:24:17;;;;;;;4.87;4.47;;;;;;;;;;5072561;28;20453;-72
2024/02/15 00:26:46;;;;;;;5.00;4.50;;;;;;;;;;5072524;28;20853;-72
2024/02/15 00:29:13;;;;;;;5.00;4.70;;;;;;;;;;5072732;28;20443;-72
2024/02/15 00:31:40;;;;;;;5.20;4.90;;;;;;;;;;5072678;28;20443;-72
2024/02/15 00:34:08;;;;;;;4.30;4.00;;;;;;;;;;5072636;28;20455;-72
2024/02/15 00:36:35;;;;;;;5.67;5.13;;;;;;;;;;5072508;28;20494;-72
2024/02/15 00:39:03;;;;;;;4.70;4.40;;;;;;;;;;5072300;28;20471;-71
2024/02/15 00:41:30;;;;;;;5.50;5.10;;;;;;;;;;5072388;28;20446;-72
2024/02/15 00:43:59;;;;;;;5.13;4.77;;;;;;;;;;5072534;28;20451;-71
2024/02/15 00:46:27;;;;;;;5.00;4.67;;;;;;;;;;5072601;28;20758;-72
2024/02/15 00:48:54;;;;;;;4.30;4.00;;;;;;;;;;5072522;28;20447;-72
2024/02/15 00:51:21;;;;;;;6.10;5.07;;;;;;;;;;5072397;28;20963;-72
2024/02/15 00:53:48;;;;;;;7.13;4.83;;;;;;;;;;5072443;28;20456;-72
2024/02/15 00:56:15;;;;;;;5.90;5.20;;;;;;;;;;5075957;28;20498;-72
2024/02/15 00:58:42;;;;;;;4.97;4.50;;;;;;;;;;5076110;28;20538;-72
2024/02/15 01:01:11;;;;;;;4.60;4.30;;;;;;;;;;5076065;28;20532;-72
2024/02/15 01:03:38;;;;;;;5.60;5.10;;;;;;;;;;5075988;28;20509;-72
2024/02/15 01:06:06;;;;;;;6.47;4.20;;;;;;;;;;5075855;28;20517;-72
2024/02/15 01:08:33;;;;;;;6.30;4.67;;;;;;;;;;5075715;28;20443;-72
2024/02/15 01:11:00;;;;;;;5.43;5.03;;;;;;;;;;5075986;28;20531;-71
2024/02/15 01:13:27;;;;;;;4.87;4.57;;;;;;;;;;5075845;28;20469;-72
2024/02/15 01:15:54;;;;;;;7.80;5.40;;;;;;;;;;5075782;28;20526;-71
2024/02/15 01:18:23;;;;;;;5.63;5.20;;;;;;;;;;5075524;28;20993;-71
2024/02/15 01:20:50;;;;;;;6.27;5.67;;;;;;;;;;5075608;28;20501;-72
2024/02/15 01:23:17;;;;;;;5.17;4.87;;;;;;;;;;5075745;28;20439;-72
2024/02/15 01:25:45;;;;;;;6.53;5.90;;;;;;;;;;5075687;28;20879;-72
2024/02/15 01:28:12;;;;;;;6.50;6.00;;;;;;;;;;5075631;28;20447;-71
2024/02/15 01:30:39;;;;;;;6.20;5.70;;;;;;;;;;5075494;28;20534;-72
2024/02/15 01:33:06;;;;;;;7.63;6.93;;;;;;;;;;5075426;28;20538;-71
2024/02/15 01:35:37;;;;;;;6.97;6.37;;;;;;;;;;5075292;28;20509;-71
2024/02/15 01:38:04;;;;;;;7.60;6.90;;;;;;;;;;5075261;28;20574;-71
2024/02/15 01:40:31;;;;;;;6.00;5.60;;;;;;;;;;5075445;28;20534;-72
2024/02/15 01:43:00;;;;;;;7.50;6.90;;;;;;;;;;5075130;28;20974;-71
2024/02/15 01:45:28;;;;;;;7.17;6.50;;;;;;;;;;5075198;28;20451;-71
2024/02/15 01:47:55;;;;;;;7.60;6.97;;;;;;;;;;5075102;28;20947;-71
2024/02/15 01:50:23;;;;;;;6.23;5.63;;;;;;;;;;5075334;28;20444;-71
2024/02/15 01:52:53;;;;;;;6.83;6.00;;;;;;;;;;5075005;28;21002;-71
2024/02/15 01:55:20;;;;;;;6.97;5.33;;;;;;;;;;5075163;28;20870;-71
2024/02/15 01:57:47;;;;;;;6.73;6.10;;;;;;;;;;5074882;28;20483;-71
2024/02/15 02:00:15;;;;;;;7.40;6.83;;;;;;;;;;5074859;28;20483;-72
2024/02/15 02:02:43;;;;;;;6.57;6.00;;;;;;;;;;5074852;28;21000;-71
2024/02/15 02:05:10;;;;;;;7.23;6.70;;;;;;;;;;5074952;28;20454;-71
2024/02/15 02:07:38;;;;;;;6.93;6.43;;;;;;;;;;5074273;28;20443;-72
2024/02/15 02:10:07;;;;;;;7.43;6.60;;;;;;;;;;5074814;28;20585;-71
2024/02/15 02:12:34;;;;;;;8.17;6.80;;;;;;;;;;5074687;28;20445;-72
2024/02/15 02:15:01;;;;;;;7.40;6.80;;;;;;;;;;5074599;28;21046;-72
2024/02/15 02:17:28;;;;;;;6.90;6.30;;;;;;;;;;5074639;28;20471;-71
2024/02/15 02:19:56;;;;;;;7.17;6.57;;;;;;;;;;5074649;28;20449;-72
2024/02/15 02:22:24;;;;;;;7.30;6.70;;;;;;;;;;5074578;28;20513;-72
2024/02/15 02:25:00;;;;;;;7.50;6.80;;;;;;;;;;5074896;28;20977;-71
2024/02/15 02:27:28;;;;;;;7.70;7.10;;;;;;;;;;5074291;28;20533;-71
2024/02/15 02:29:55;;;;;;;8.10;7.40;;;;;;;;;;5074209;28;21007;-72
2024/02/15 02:32:22;;;;;;;8.33;7.63;;;;;;;;;;5074420;28;20444;-71
2024/02/15 02:34:49;;;;;;;8.13;7.53;;;;;;;;;;5074240;28;20479;-72
2024/02/15 02:37:16;;;;;;;8.03;7.43;;;;;;;;;;5074254;28;20970;-72
2024/02/15 02:39:44;;;;;;;8.17;7.47;;;;;;;;;;5073932;28;20562;-72
2024/02/15 02:42:12;;;;;;;8.83;8.17;;;;;;;;;;5074009;28;20577;-71
2024/02/15 02:44:39;;;;;;;8.80;8.00;;;;;;;;;;5074376;28;20451;-71
2024/02/15 02:47:06;;;;;;;8.67;7.87;;;;;;;;;;5074074;28;20536;-72
2024/02/15 02:49:33;;;;;;;8.80;8.00;;;;;;;;;;5073960;28;20483;-72
2024/02/15 02:52:00;;;;;;;8.23;7.53;;;;;;;;;;5073875;28;20450;-72
2024/02/15 02:54:29;;;;;;;10.57;8.10;;;;;;;;;;5073745;28;20856;-71
2024/02/15 02:56:56;;;;;;;8.80;8.10;;;;;;;;;;5073587;28;20528;-72
2024/02/15 02:59:25;;;;;;;8.83;8.20;;;;;;;;;;5073902;28;20439;-72
2024/02/15 03:01:56;;;;;;;10.50;9.50;;;;;;;;;;5073831;28;20521;-72
2024/02/15 03:04:23;;;;;;;10.10;9.30;;;;;;;;;;5073984;28;20926;-72
2024/02/15 03:06:51;;;;;;;8.93;8.03;;;;;;;;;;5073748;28;20847;-72
2024/02/15 03:09:20;;;;;;;8.77;7.97;;;;;;;;;;5073447;28;20498;-72
2024/02/15 03:11:47;;;;;;;9.60;8.67;;;;;;;;;;5073602;28;20543;-71
2024/02/15 03:14:14;;;;;;;10.40;9.50;;;;;;;;;;5073496;28;20807;-72
2024/02/15 03:16:43;;;;;;;9.07;8.17;;;;;;;;;;5073436;28;20475;-72
2024/02/15 03:19:11;;;;;;;8.33;7.43;;;;;;;;;;5072565;28;20443;-72
2024/02/15 03:21:38;;;;;;;10.20;9.10;;;;;;;;;;5073324;28;20807;-72
2024/02/15 03:24:05;;;;;;;9.30;8.40;;;;;;;;;;5073505;28;20451;-72
2024/02/15 03:26:36;;;;;;;8.63;7.93;;;;;;;;;;5073153;28;21027;-72
2024/02/15 03:29:03;;;;;;;8.50;7.80;;;;;;;;;;5073380;28;20876;-72
2024/02/15 03:31:31;;;;;;;9.47;8.57;;;;;;;;;;5073660;28;20471;-72
2024/02/15 03:33:59;;;;;;;7.77;7.17;;;;;;;;;;5073182;28;20454;-72
2024/02/15 03:36:29;;;;;;;9.50;8.70;;;;;;;;;;5073022;28;20447;-72
2024/02/15 03:38:56;;;;;;;9.73;8.90;;;;;;;;;;5072929;28;20847;-71
2024/02/15 03:41:23;;;;;;;10.53;9.30;;;;;;;;;;5073243;28;20443;-72
2024/02/15 03:43:50;;;;;;;10.40;9.40;;;;;;;;;;5072976;28;20448;-72
2024/02/15 03:46:16;;;;;;;11.30;9.30;;;;;;;;;;5073015;28;20538;-72
2024/02/15 03:48:45;;;;;;;10.10;8.97;;;;;;;;;;5072930;28;20442;-72
2024/02/15 03:51:18;;;;;;;10.10;9.20;;;;;;;;;;5073199;28;20497;-72
2024/02/15 03:53:45;;;;;;;9.60;8.70;;;;;;;;;;5073154;28;20443;-72
2024/02/15 03:56:12;;;;;;;10.53;9.53;;;;;;;;;;5073066;28;20854;-72
2024/02/15 03:58:39;;;;;;;9.30;8.50;;;;;;;;;;5072892;28;20832;-72
2024/02/15 04:01:09;;;;;;;9.70;8.80;;;;;;;;;;5072856;28;20444;-72
2024/02/15 04:03:36;;;;;;;11.00;10.00;;;;;;;;;;5073058;28;20450;-72
2024/02/15 04:06:04;;;;;;;10.47;9.47;;;;;;;;;;5072979;28;20546;-72
2024/02/15 04:08:33;;;;;;;10.53;9.50;;;;;;;;;;5072931;28;20538;-72
2024/02/15 04:11:00;;;;;;;10.50;9.50;;;;;;;;;;5072690;28;20997;-71
2024/02/15 04:13:27;;;;;;;10.50;9.47;;;;;;;;;;5072788;28;20538;-72
2024/02/15 04:15:54;;;;;;;11.63;9.60;;;;;;;;;;5072668;28;20530;-71
2024/02/15 04:18:22;;;;;;;9.30;8.50;;;;;;;;;;5072766;28;20515;-71
2024/02/15 04:20:49;;;;;;;11.17;10.17;;;;;;;;;;5072775;28;20504;-71
2024/02/15 04:23:16;;;;;;;9.87;8.97;;;;;;;;;;5072788;28;20448;-71
2024/02/15 04:25:50;;;;;;;11.20;10.20;;;;;;;;;;5072718;28;20512;-71
2024/02/15 04:28:17;;;;;;;13.10;10.87;;;;;;;;;;5072545;28;20529;-72
2024/02/15 04:30:46;;;;;;;10.77;9.70;;;;;;;;;;5076145;28;20443;-72
2024/02/15 04:33:15;;;;;;;10.67;9.63;;;;;;;;;;5076689;28;20850;-71
2024/02/15 04:35:42;;;;;;;11.20;9.87;;;;;;;;;;5076558;28;20871;-71
2024/02/15 04:38:09;;;;;;;9.93;9.03;;;;;;;;;;5076233;28;20784;-71
2024/02/15 04:40:38;;;;;;;10.90;9.80;;;;;;;;;;5076460;28;20803;-72
2024/02/15 04:43:06;;;;;;;9.73;8.93;;;;;;;;;;5076250;28;20531;-72
2024/02/15 04:45:33;;;;;;;10.93;9.30;;;;;;;;;;5076400;28;20542;-71
2024/02/15 04:48:02;;;;;;;11.17;10.10;;;;;;;;;;5076287;28;20867;-71
2024/02/15 04:50:30;;;;;;;10.40;9.50;;;;;;;;;;5076232;28;20454;-72
2024/02/15 04:52:57;;;;;;;11.47;10.40;;;;;;;;;;5076144;28;20470;-72
2024/02/15 04:55:26;;;;;;;11.73;10.53;;;;;;;;;;5076034;28;20451;-72
2024/02/15 04:57:54;;;;;;;11.47;10.27;;;;;;;;;;5076129;28;20558;-72
2024/02/15 05:00:25;;;;;;;11.40;10.40;;;;;;;;;;5076103;28;20444;-71
2024/02/15 05:02:52;;;;;;;7.97;7.37;;;;;;;;;;5076058;28;20542;-72
2024/02/15 05:05:19;;;;;;;10.43;9.47;;;;;;;;;;5075941;28;20530;-72
2024/02/15 05:07:46;;;;;;;9.70;8.80;;;;;;;;;;5075853;28;21189;-72
2024/02/15 05:10:14;;;;;;;11.80;10.30;;;;;;;;;;5075779;28;20439;-72
2024/02/15 05:12:42;;;;;;;9.70;8.70;;;;;;;;;;5075884;28;20530;-71
2024/02/15 05:15:10;;;;;;;10.63;9.57;;;;;;;;;;5075812;28;20443;-72
2024/02/15 05:17:40;;;;;;;10.53;9.60;;;;;;;;;;5075515;28;20467;-72
2024/02/15 05:20:11;;;;;;;11.03;10.03;;;;;;;;;;5075920;28;20443;-72
2024/02/15 05:22:38;;;;;;;10.40;9.40;;;;;;;;;;5075547;28;20451;-72
2024/02/15 05:25:06;;;;;;;10.40;9.40;;;;;;;;;;5075727;28;20444;-72
2024/02/15 05:27:33;;;;;;;9.70;8.70;;;;;;;;;;5075378;28;20471;-72
2024/02/15 05:30:00;;;;;;;10.67;9.67;;;;;;;;;;5075592;28;20810;-72
2024/02/15 05:32:27;;;;;;;10.10;9.20;;;;;;;;;;5075361;28;20534;-72
2024/02/15 05:34:55;;;;;;;13.27;11.90;;;;;;;;;;5075400;28;20826;-71
2024/02/15 05:37:23;;;;;;;12.40;11.13;;;;;;;;;;5075168;28;20453;-72
2024/02/15 05:39:53;;;;;;;11.77;10.57;;;;;;;;;;5075048;28;20902;-71
2024/02/15 05:42:20;;;;;;;15.63;12.27;;;;;;;;;;5074339;28;20451;-72
2024/02/15 05:44:47;;;;;;;11.30;10.20;;;;;;;;;;5075295;28;20443;-72
2024/02/15 05:47:14;;;;;;;11.83;10.63;;;;;;;;;;5075237;28;20856;-72
2024/02/15 05:49:41;;;;;;;13.37;11.00;;;;;;;;;;5075043;28;20450;-72
2024/02/15 05:52:09;;;;;;;11.47;10.37;;;;;;;;;;5075066;28;21010;-72
2024/02/15 05:54:36;;;;;;;11.80;10.70;;;;;;;;;;5075143;28;20443;-72
2024/02/15 05:57:03;;;;;;;11.13;10.10;;;;;;;;;;5075038;28;20443;-72
2024/02/15 05:59:30;;;;;;;10.40;9.50;;;;;;;;;;5074843;28;20573;-72
2024/02/15 06:01:57;;;;;;;11.13;10.13;;;;;;;;;;5074817;28;20534;-72
2024/02/15 06:04:26;;;;;;;11.03;9.63;;;;;;;;;;5074742;28;20530;-72
2024/02/15 06:06:58;;;;;;;11.73;10.57;;;;;;;;;;5074873;28;20444;-72
2024/02/15 06:09:27;;;;;;;12.33;11.00;;;;;;;;;;5074849;28;20458;-72
2024/02/15 06:11:56;;;;;;;10.70;9.60;;;;;;;;;;5074557;28;21018;-72
2024/02/15 06:14:23;;;;;;;11.13;10.03;;;;;;;;;;5074642;28;20454;-72
2024/02/15 06:16:51;;;;;;;11.23;10.23;;;;;;;;;;5074858;28;20447;-72
2024/02/15 06:19:18;;;;;;;10.50;9.43;;;;;;;;;;5074472;28;20486;-72
2024/02/15 06:21:46;;;;;;;11.50;10.40;;;;;;;;;;5074601;28;20443;-72
2024/02/15 06:24:14;;;;;;;9.63;8.83;;;;;;;;;;5074443;28;20831;-72
2024/02/15 06:26:42;;;;;;;10.23;9.23;;;;;;;;;;5074297;28;20450;-72
2024/02/15 06:40:23;;;;;;;12.90;10.87;;;;;;;;;;5073937;28;20894;-72
2024/02/15 06:42:52;;;;;;;10.83;9.80;;;;;;;;;;5074066;28;20517;-72
2024/02/15 06:45:19;;;;;;;9.87;8.97;;;;;;;;;;5073969;28;20530;-72
2024/02/15 06:47:46;;;;;;;10.53;9.50;;;;;;;;;;5073810;28;20455;-72
2024/02/15 06:50:14;;;;;;;9.70;8.80;;;;;;;;;;5073788;28;20504;-72
2024/02/15 06:52:41;;;;;;;10.83;9.80;;;;;;;;;;5073568;28;20451;-72
2024/02/15 06:55:11;;;;;;;11.07;10.07;;;;;;;;;;5073796;28;20521;-72
2024/02/15 06:57:40;;;;;;;9.70;8.80;;;;;;;;;;5073762;28;20447;-72
2024/02/15 07:00:14;;;;;;;10.60;9.60;;;;;;;;;;5073730;28;20539;-72
2024/02/15 07:02:43;;;;;;;10.43;9.33;;;;;;;;;;5073508;28;20450;-72
2024/02/15 07:05:11;;;;;;;10.63;9.70;;;;;;;;;;5073885;28;20497;-72
2024/02/15 07:07:39;;;;;;;10.03;9.00;;;;;;;;;;5073607;28;20811;-72
2024/02/15 07:10:06;;;;;;;14.50;10.03;;;;;;;;;;5073581;28;20458;-72
2024/02/15 07:12:33;;;;;;;13.10;11.67;;;;;;;;;;5073531;28;20542;-72
2024/02/15 07:15:03;;;;;;;9.63;8.73;;;;;;;;;;5073274;28;20538;-73
2024/02/15 07:17:31;;;;;;;13.90;9.40;;;;;;;;;;5073356;28;20935;-72
2024/02/15 07:19:58;;;;;;;10.90;9.80;;;;;;;;;;5073352;28;20498;-72
2024/02/15 07:22:25;;;;;;;10.30;9.40;;;;;;;;;;5073351;28;20451;-72
2024/02/15 07:24:53;;;;;;;9.00;8.10;;;;;;;;;;5073279;28;20535;-72
2024/02/15 07:27:22;;;;;;;10.60;9.53;;;;;;;;;;5073242;28;20526;-72
2024/02/15 07:29:49;;;;;;;9.03;8.00;;;;;;;;;;5073446;28;21007;-72
2024/02/15 07:32:17;;;;;;;8.63;7.83;;;;;;;;;;5073300;28;20539;-72
2024/02/15 07:34:47;;;;;;;8.60;7.80;;;;;;;;;;5073288;28;20439;-72
2024/02/15 07:37:15;;;;;;;8.80;8.00;;;;;;;;;;5073197;28;20526;-72
2024/02/15 07:39:42;;;;;;;9.83;8.90;;;;;;;;;;5072836;28;20489;-72
2024/02/15 07:42:09;;;;;;;9.93;9.03;;;;;;;;;;5072764;28;20872;-72
2024/02/15 07:44:37;;;;;;;9.50;8.63;;;;;;;;;;5073141;28;20451;-72
2024/02/15 07:47:04;;;;;;;8.90;8.00;;;;;;;;;;5073050;28;20447;-72
2024/02/15 07:49:33;;;;;;;9.00;8.10;;;;;;;;;;5072949;28;20451;-72
2024/02/15 07:52:01;;;;;;;8.70;7.93;;;;;;;;;;5072891;28;20810;-72
2024/02/15 07:54:29;;;;;;;8.70;7.40;;;;;;;;;;5072695;28;20473;-72
2024/02/15 07:56:58;;;;;;;9.07;8.30;;;;;;;;;;5072749;28;20897;-72
2024/02/15 07:59:25;;;;;;;9.17;8.33;;;;;;;;;;5072829;28;20847;-72
2024/02/15 08:01:51;;;;;;;9.27;8.37;;;;;;;;;;5072799;28;20776;-72
2024/02/15 08:04:18;;;;;;;8.23;7.53;;;;;;;;;;5072114;28;20931;-71
2024/02/15 08:06:45;;;;;;;8.80;8.00;;;;;;;;;;5072650;28;20533;-72
2024/02/15 08:09:17;;;;;;;9.40;8.60;;;;;;;;;;5072425;28;20510;-71
2024/02/15 08:11:44;;;;;;;8.70;7.73;;;;;;;;;;5072282;28;20959;-72
2024/02/15 08:14:12;;;;;;;9.20;8.33;;;;;;;;;;5072431;28;20535;-70
2024/02/15 08:16:40;;;;;;;10.63;9.27;;;;;;;;;;5072450;28;20447;-69
2024/02/15 08:19:07;;;;;;;9.83;8.83;;;;;;;;;;5072433;28;20479;-70
2024/02/15 08:21:36;;;;;;;10.70;8.03;;;;;;;;;;5072569;28;20458;-67
2024/02/15 08:24:05;;;;;;;8.37;7.67;;;;;;;;;;5072430;28;20538;-69
2024/02/15 08:26:35;;;;;;;7.83;7.00;;;;;;;;;;5072548;28;20815;-67
2024/02/15 08:29:03;;;;;;;7.70;7.00;;;;;;;;;;5072577;28;20478;-69
2024/02/15 08:31:31;;;;;;;8.13;7.33;;;;;;;;;;5072344;28;20455;-65
2024/02/15 08:33:58;;;;;;;6.87;6.30;;;;;;;;;;5072353;28;20455;-73
2024/02/15 08:36:25;;;;;;;8.10;7.40;;;;;;;;;;5072252;28;20534;-73
2024/02/15 08:38:52;;;;;;;7.13;6.63;;;;;;;;;;5072226;28;20511;-73
2024/02/15 08:41:20;;;;;;;6.80;6.20;;;;;;;;;;5072325;28;20499;-71
2024/02/15 08:43:49;;;;;;;8.00;7.20;;;;;;;;;;5072428;28;20534;-70
2024/02/15 08:46:16;;;;;;;6.97;6.37;;;;;;;;;;5072371;28;20477;-69
2024/02/15 08:48:43;;;;;;;9.07;8.27;;;;;;;;;;5072254;28;20487;-73
2024/02/15 08:51:10;;;;;;;8.57;7.80;;;;;;;;;;5072207;28;20992;-73
2024/02/15 08:53:37;;;;;;;9.67;8.87;;;;;;;;;;5072362;28;20496;-70
2024/02/15 08:56:04;;;;;;;8.63;7.93;;;;;;;;;;5072088;28;20448;-69
2024/02/15 08:58:31;;;;;;;7.20;6.50;;;;;;;;;;5071962;28;20538;-71
2024/02/15 09:00:59;;;;;;;8.47;7.73;;;;;;;;;;5072057;28;20880;-72
2024/02/15 09:03:26;;;;;;;7.13;6.43;;;;;;;;;;5071955;28;20804;-71
2024/02/15 09:05:53;;;;;;;7.87;7.20;;;;;;;;;;5072314;28;20534;-72
2024/02/15 09:08:20;;;;;;;9.50;8.43;;;;;;;;;;5072234;28;20542;-69
2024/02/15 09:10:47;;;;;;;7.90;7.20;;;;;;;;;;5072177;28;20458;-70
2024/02/15 09:13:15;;;;;;;8.00;7.20;;;;;;;;;;5071876;28;20970;-69
2024/02/15 09:15:42;;;;;;;6.90;6.30;;;;;;;;;;5071793;28;20444;-67
2024/02/15 09:18:10;;;;;;;7.73;6.93;;;;;;;;;;5075454;28;20938;-69
2024/02/15 09:20:40;;;;;;;9.80;7.37;;;;;;;;;;5075604;28;20853;-67
2024/02/15 09:23:09;;;;;;;7.73;6.13;;;;;;;;;;5075534;28;20939;-70
2024/02/15 09:25:37;;;;;;;9.40;8.50;;;;;;;;;;5074944;28;20538;-68
2024/02/15 09:28:04;;;;;;;7.30;6.70;;;;;;;;;;5075472;28;20451;-72
2024/02/15 09:30:31;;;;;;;7.37;6.70;;;;;;;;;;5075118;28;20543;-71
2024/02/15 09:32:59;;;;;;;8.00;7.30;;;;;;;;;;5075203;28;20452;-72
2024/02/15 09:35:27;;;;;;;8.17;7.30;;;;;;;;;;5075392;28;20443;-74
2024/02/15 09:37:56;;;;;;;8.30;7.50;;;;;;;;;;5074426;28;20533;-72
2024/02/15 09:40:26;;;;;;;12.10;6.80;;;;;;;;;;5075193;28;20741;-70
2024/02/15 09:42:53;;;;;;;7.63;6.83;;;;;;;;;;5075178;28;20451;-72
2024/02/15 09:45:20;;;;;;;7.30;6.70;;;;;;;;;;5075314;28;20454;-69
2024/02/15 09:47:49;;;;;;;6.80;6.20;;;;;;;;;;5075306;28;20444;-69
2024/02/15 09:50:17;;;;;;;7.10;6.50;;;;;;;;;;5075067;28;20448;-69
2024/02/15 09:52:47;;;;;;;7.40;6.80;;;;;;;;;;5074439;28;20541;-64
2024/02/15 09:55:14;;;;;;;10.80;9.90;;;;;;;;;;5073799;28;20541;-65
2024/02/15 09:57:41;;;;;;;7.70;7.00;;;;;;;;;;5074719;28;20196;-72
2024/02/15 10:00:13;;;;;;;7.43;6.73;;;;;;;;;;5075017;28;20485;-73
2024/02/15 10:02:41;;;;;;;6.40;5.90;;;;;;;;;;5074977;28;20829;-74
2024/02/15 10:05:11;;;;;;;8.27;6.20;;;;;;;;;;5074983;28;20949;-68
2024/02/15 10:07:38;;;;;;;6.40;5.90;;;;;;;;;;5074806;28;20483;-68
2024/02/15 10:10:18;;;;;;;6.90;5.97;;;;;;;;;;5074536;28;20530;-67
2024/02/15 10:12:47;;;;;;;6.60;6.00;;;;;;;;;;5074740;28;20447;-68
2024/02/15 10:15:28;;;;;;;6.50;5.90;;;;;;;;;;5074376;28;20493;-67
2024/02/15 10:17:56;;;;;;;6.40;5.90;;;;;;;;;;5073396;28;20537;-69
2024/02/15 10:20:25;;;;;;;6.33;5.73;;;;;;;;;;5074278;28;20216;-67
2024/02/15 10:22:52;;;;;;;6.77;6.17;;;;;;;;;;5074663;28;20531;-67
2024/02/15 10:25:22;;;;;;;5.70;5.20;;;;;;;;;;5074126;28;20447;-70
2024/02/15 10:27:49;;;;;;;4.60;4.30;;;;;;;;;;5073701;28;20967;-67
2024/02/15 10:30:16;;;;;;;4.67;4.37;;;;;;;;;;5074311;28;20448;-63
2024/02/15 10:32:44;;;;;;;6.87;6.27;;;;;;;;;;5074436;28;20857;-65
2024/02/15 10:35:15;;;;;;;5.73;5.23;;;;;;;;;;5074531;28;20454;-65
2024/02/15 10:37:42;;;;;;;5.67;5.20;;;;;;;;;;5074108;28;20447;-66
2024/02/15 10:40:13;;;;;;;5.57;5.17;;;;;;;;;;5073721;28;20881;-66
2024/02/15 10:42:42;;;;;;;5.27;4.87;;;;;;;;;;5074075;28;20455;-66
2024/02/15 10:45:10;;;;;;;5.53;4.97;;;;;;;;;;5073948;28;20455;-66
2024/02/15 10:47:39;;;;;;;6.70;5.47;;;;;;;;;;5074022;28;20490;-65
2024/02/15 10:50:06;;;;;;;5.37;4.97;;;;;;;;;;5073923;28;20444;-66
2024/02/15 10:52:34;;;;;;;5.73;5.30;;;;;;;;;;5073828;28;20877;-66
2024/02/15 10:55:04;;;;;;;5.07;4.77;;;;;;;;;;5073782;28;20535;-73
2024/02/15 10:57:33;;;;;;;5.97;4.20;;;;;;;;;;5073758;28;20824;-75
2024/02/15 11:00:10;;;;;;;4.43;4.13;;;;;;;;;;5073697;28;20494;-76
2024/02/15 11:02:41;;;;;;;6.30;4.97;;;;;;;;;;5073664;28;20435;-70
2024/02/15 11:05:10;;;;;;;4.40;4.00;;;;;;;;;;5073628;28;20449;-70
2024/02/15 11:07:37;;;;;;;5.27;4.27;;;;;;;;;;5073396;28;20513;-67
2024/02/15 11:10:08;;;;;;;4.50;4.10;;;;;;;;;;5073414;28;20526;-67
2024/02/15 11:12:35;;;;;;;4.20;3.90;;;;;;;;;;5073153;28;20443;-74
2024/02/15 11:15:06;;;;;;;4.30;4.00;;;;;;;;;;5073510;28;20871;-67
2024/02/15 11:17:53;;;;;;;4.20;3.90;;;;;;;;;;5073404;28;20842;-70
2024/02/15 11:20:39;;;;;;;3.67;3.37;;;;;;;;;;5073153;28;20479;-73
2024/02/15 11:23:06;;;;;;;4.37;3.97;;;;;;;;;;5073122;28;20530;-65
2024/02/15 11:25:34;;;;;;;3.63;3.43;;;;;;;;;;5073255;28;20531;-65
2024/02/15 11:28:27;;;;;;;3.40;3.20;;;;;;;;;;5073186;28;20811;-65
2024/02/15 11:30:56;;;;;;;3.17;2.97;;;;;;;;;;5073002;28;20803;-65
2024/02/15 11:33:27;;;;;;;4.03;3.77;;;;;;;;;;5073141;28;20439;-65
2024/02/15 11:36:05;;;;;;;3.80;3.50;;;;;;;;;;5073196;28;20439;-71
2024/02/15 11:38:31;;;;;;;3.43;3.03;;;;;;;;;;5072565;28;20550;-72
2024/02/15 11:41:05;;;;;;;3.60;3.30;;;;;;;;;;5072897;28;20552;-72
2024/02/15 11:43:58;;;;;;;3.27;3.07;;;;;;;;;;5072986;28;20877;-72
2024/02/15 11:46:30;;;;;;;2.80;2.60;;;;;;;;;;5073067;28;20573;-71
2024/02/15 11:48:58;;;;;;;4.67;3.37;;;;;;;;;;5072968;28;20492;-67
2024/02/15 11:51:26;;;;;;;4.10;3.10;;;;;;;;;;5072479;28;20454;-73
2024/02/15 11:54:00;;;;;;;3.03;2.83;;;;;;;;;;5071780;28;20480;-82
2024/02/15 11:56:27;;;;;;;2.60;2.30;;;;;;;;;;5071008;28;20815;-69
2024/02/15 11:59:02;;;;;;;2.50;2.40;;;;;;;;;;5070775;28;20448;-69
2024/02/15 12:21:00;;;;;;;2.60;2.50;;;;;;;;;;5073684;28;20528;-84
2024/02/15 12:23:27;;;;;;;2.73;2.47;;;;;;;;;;5072721;28;20455;-73
2024/02/15 12:25:54;;;;;;;2.70;2.50;;;;;;;;;;5072719;28;20451;-70
2024/02/15 12:28:21;;;;;;;2.60;2.23;;;;;;;;;;5072561;28;20535;-69
2024/02/15 12:30:56;;;;;;;2.53;2.33;;;;;;;;;;5072487;28;20517;-69
2024/02/15 12:33:23;;;;;;;2.80;2.60;;;;;;;;;;5072536;28;20874;-69
2024/02/15 12:35:51;;;;;;;4.03;2.37;;;;;;;;;;5072249;28;20534;-67
2024/02/15 12:38:19;;;;;;;2.33;2.13;;;;;;;;;;5072458;28;20468;-67
2024/02/15 12:40:46;;;;;;;2.90;2.70;;;;;;;;;;5072395;28;20570;-70
2024/02/15 12:43:13;;;;;;;2.53;2.33;;;;;;;;;;5072445;28;20444;-70
2024/02/15 12:45:41;;;;;;;2.87;2.63;;;;;;;;;;5072292;28;20451;-68
2024/02/15 12:48:08;;;;;;;3.30;2.17;;;;;;;;;;5072140;28;20451;-62
2024/02/15 12:50:35;;;;;;;2.50;1.97;;;;;;;;;;5073837;28;20479;-72
2024/02/15 12:53:02;;;;;;;2.53;2.33;;;;;;;;;;5076054;28;20470;-70
2024/02/15 12:55:34;;;;;;;3.00;2.80;;;;;;;;;;5076020;28;20448;-67
2024/02/15 12:58:03;;;;;;;2.43;1.90;;;;;;;;;;5075933;28;20447;-67
2024/02/15 13:00:32;;;;;;;3.07;2.87;;;;;;;;;;5075748;28;20910;-66
2024/02/15 13:03:00;;;;;;;1.80;1.70;;;;;;;;;;5075780;28;20505;-67
2024/02/15 13:05:28;;;;;;;1.53;1.43;;;;;;;;;;5076086;28;20850;-67
2024/02/15 13:07:56;;;;;;;2.90;1.90;;;;;;;;;;5075726;28;20518;-69
2024/02/15 13:10:23;;;;;;;2.83;1.90;;;;;;;;;;5075566;28;20530;-68
2024/02/15 13:12:55;;;;;;;1.30;1.20;;;;;;;;;;5075727;28;20447;-66
2024/02/15 13:15:26;;;;;;;1.40;1.30;;;;;;;;;;5075633;28;20446;-70
2024/02/15 13:17:55;;;;;;;1.53;1.00;;;;;;;;;;5075839;28;20444;-69
2024/02/15 13:20:31;;;;;;;1.30;1.20;;;;;;;;;;5075628;28;20820;-68
2024/02/15 13:23:00;;;;;;;1.30;1.20;;;;;;;;;;5075652;28;20506;-69
2024/02/15 13:25:27;;;;;;;1.43;1.33;;;;;;;;;;5075535;28;20453;-69
2024/02/15 13:27:55;;;;;;;1.53;1.33;;;;;;;;;;5075445;28;20535;-69
2024/02/15 13:30:26;;;;;;;1.30;1.20;;;;;;;;;;5074160;28;20542;-70
2024/02/15 13:32:54;;;;;;;1.37;1.13;;;;;;;;;;5074003;28;20442;-70
2024/02/15 13:35:23;;;;;;;1.10;1.00;;;;;;;;;;5073948;28;20447;-70
2024/02/15 13:37:52;;;;;;;1.30;1.20;;;;;;;;;;5073661;28;20443;-69
2024/02/15 13:40:22;;;;;;;1.70;1.03;;;;;;;;;;5073483;28;20473;-70
2024/02/15 13:42:52;;;;;;;0.90;0.90;;;;;;;;;;5073973;28;20447;-69
2024/02/15 13:45:22;;;;;;;1.20;1.10;;;;;;;;;;5074905;28;20443;-69
2024/02/15 13:47:50;;;;;;;1.00;0.90;;;;;;;;;;5075132;28;20927;-70
2024/02/15 13:50:17;;;;;;;1.63;1.07;;;;;;;;;;5075029;28;20448;-69
2024/02/15 13:52:44;;;;;;;1.00;0.90;;;;;;;;;;5074927;28;20943;-69
2024/02/15 13:55:12;;;;;;;1.00;1.00;;;;;;;;;;5074913;28;20454;-68
2024/02/15 13:57:39;;;;;;;1.37;1.27;;;;;;;;;;5075321;28;20447;-69
2024/02/15 14:00:12;;;;;;;2.93;1.20;;;;;;;;;;5074902;28;20875;-70
2024/02/15 14:02:41;;;;;;;1.20;1.07;;;;;;;;;;5074064;28;20444;-68
2024/02/15 14:05:09;;;;;;;3.37;0.90;;;;;;;;;;5074775;28;20455;-68
2024/02/15 14:07:35;;;;;;;1.50;1.00;;;;;;;;;;5074585;28;20447;-68
2024/02/15 14:10:02;;;;;;;1.13;1.03;;;;;;;;;;5074852;28;20550;-68
2024/02/15 14:12:29;;;;;;;1.37;1.17;;;;;;;;;;5075022;28;20458;-68
2024/02/15 14:14:56;;;;;;;1.30;1.20;;;;;;;;;;5074644;28;20453;-68
2024/02/15 14:17:23;;;;;;;1.30;1.20;;;;;;;;;;5074498;28;21050;-69
2024/02/15 14:19:52;;;;;;;1.13;1.00;;;;;;;;;;5074582;28;20523;-68
2024/02/15 14:22:20;;;;;;;1.30;1.20;;;;;;;;;;5073811;28;21068;-69
2024/02/15 14:24:47;;;;;;;3.90;1.43;;;;;;;;;;5074062;28;20489;-69
2024/02/15 14:27:14;;;;;;;1.63;1.30;;;;;;;;;;5071546;28;20520;-68
2024/02/15 14:32:59;;;;;;;1.83;1.10;;;;;;;;;;5072848;28;20476;-69
2024/02/15 14:35:16;;;;;;;1.67;0.90;;;;;;;;;;5073958;28;20456;-69
2024/02/15 14:37:43;;;;;;;1.20;1.10;;;;;;;;;;5074171;28;20857;-68
2024/02/15 14:40:12;;;;;;;1.20;1.10;;;;;;;;;;5074120;28;20489;-68
2024/02/15 14:42:41;;;;;;;1.13;1.03;;;;;;;;;;5074021;28;20451;-68
2024/02/15 14:45:08;;;;;;;1.17;1.07;;;;;;;;;;5073831;28;20450;-68
2024/02/15 14:47:35;;;;;;;1.90;1.40;;;;;;;;;;5074058;28;20874;-69
2024/02/15 14:50:03;;;;;;;1.30;1.20;;;;;;;;;;5074201;28;20862;-69
2024/02/15 14:52:31;;;;;;;1.30;1.20;;;;;;;;;;5073927;28;20781;-68
2024/02/15 14:54:58;;;;;;;1.70;1.43;;;;;;;;;;5073800;28;20502;-68
2024/02/15 14:57:25;;;;;;;1.20;1.10;;;;;;;;;;5073535;28;20452;-68
2024/02/15 14:59:53;;;;;;;1.33;1.20;;;;;;;;;;5073422;28;20539;-69
2024/02/15 15:02:20;;;;;;;2.33;1.50;;;;;;;;;;5073565;28;20479;-69
2024/02/15 15:12:36;;;;;;;1.20;1.10;;;;;;;;;;5073666;28;20444;-69
2024/02/15 15:13:15;;;;;;;2.90;2.70;;;;;;;;;;5073787;28;20969;-69
2024/02/15 15:15:42;;;;;;;3.87;3.50;;;;;;;;;;5073382;28;20544;-69
2024/02/15 15:18:11;;;;;;;4.20;3.97;;;;;;;;;;5073220;28;20874;-69
2024/02/15 15:20:37;;;;;;;4.17;3.87;;;;;;;;;;5073129;28;20842;-69
2024/02/15 15:23:07;;;;;;;3.93;3.60;;;;;;;;;;5073433;28;20482;-70
2024/02/15 15:25:34;;;;;;;2.30;2.20;;;;;;;;;;5073062;28;20455;-69